Time;durP1;ratioP1;P1;durP2;ratioP2;P2;SDS_P1;SDS_P2;PMS_P1;PMS_P2;Temp;Humidity;BMP_temperature;BMP_pressure;BME280_temperature;BME280_humidity;BME280_pressure;Samples;Min_cycle;Max_cycle;Signal;HPM_P1;HPM_P2
2022/09/24 00:02:20;;;;;;;1.15;0.93;;;;;;;-145.06;100.00;60892.56;5911022;23;20010;-92
2022/09/24 00:04:59;;;;;;;1.90;0.87;;;;;;;-145.06;100.00;60892.56;5911083;23;20006;-90
2022/09/24 00:07:38;;;;;;;2.75;0.80;;;;;;;-145.06;100.00;60892.56;5911084;23;20238;-90
2022/09/24 00:10:17;;;;;;;1.13;0.82;;;;;;;-145.06;100.00;60892.56;5910612;23;20314;-91
2022/09/24 00:12:56;;;;;;;0.60;0.57;;;;;;;-145.06;100.00;60892.56;5910864;23;20006;-92
2022/09/24 00:15:36;;;;;;;1.13;0.70;;;;;;;-145.06;100.00;60892.56;5910867;23;20010;-91
2022/09/24 00:18:17;;;;;;;0.98;0.70;;;;;;;-145.06;100.00;60892.56;5910959;23;20010;-90
2022/09/24 00:20:56;;;;;;;0.82;0.80;;;;;;;-145.06;100.00;60892.56;5911136;23;20279;-90
2022/09/24 00:23:35;;;;;;;1.27;0.77;;;;;;;-145.06;100.00;60892.56;5911007;23;20010;-91
2022/09/24 00:29:16;;;;;;;1.30;0.80;;;;;;;-145.06;100.00;60892.56;5921389;23;20292;-92
2022/09/24 00:31:55;;;;;;;1.00;0.70;;;;;;;-145.06;100.00;60892.56;5910685;23;20002;-91
2022/09/24 00:34:34;;;;;;;1.23;0.52;;;;;;;-145.06;100.00;60892.56;5910788;23;20441;-92
2022/09/24 00:37:13;;;;;;;0.90;0.60;;;;;;;-145.06;100.00;60892.56;5910421;23;20037;-91
2022/09/24 00:39:52;;;;;;;1.52;0.70;;;;;;;-145.06;100.00;60892.56;5910915;23;20010;-90
2022/09/24 00:42:31;;;;;;;1.10;0.75;;;;;;;-145.06;100.00;60892.56;5911870;23;20126;-93
2022/09/24 00:45:10;;;;;;;0.70;0.50;;;;;;;-145.06;100.00;60892.56;5910385;23;20006;-91
2022/09/24 00:47:51;;;;;;;0.88;0.77;;;;;;;-145.06;100.00;60892.56;5911080;23;20342;-92
2022/09/24 00:50:34;;;;;;;1.25;0.70;;;;;;;-145.06;100.00;60892.56;5910918;23;20006;-91
2022/09/24 00:53:16;;;;;;;1.17;0.70;;;;;;;-145.06;100.00;60892.56;5910586;23;20006;-93
2022/09/24 00:55:56;;;;;;;1.98;0.80;;;;;;;-145.06;100.00;60892.56;5910891;23;20006;-91
2022/09/24 00:58:36;;;;;;;2.38;1.00;;;;;;;-145.06;100.00;60892.56;5910310;23;20009;-91
2022/09/24 01:01:15;;;;;;;;;;;;;;;-145.06;100.00;60892.56;5911271;23;20236;-92
2022/09/24 01:03:56;;;;;;;0.80;0.55;;;;;;;-145.06;100.00;60892.56;5911048;23;19905;-92
2022/09/24 01:06:36;;;;;;;0.75;0.60;;;;;;;-145.06;100.00;60892.56;5912246;23;20009;-93
2022/09/24 01:09:17;;;;;;;1.65;0.80;;;;;;;-145.06;100.00;60892.56;5912860;23;20014;-91
2022/09/24 01:12:44;;;;;;;0.80;0.65;;;;;;;-145.06;100.00;60892.56;5912067;23;20078;-91
2022/09/24 01:15:30;;;;;;;0.77;0.63;;;;;;;-145.06;100.00;60892.56;5806636;23;20007;-92
2022/09/24 01:18:21;;;;;;;1.27;0.70;;;;;;;-145.06;100.00;60892.56;5912645;23;20006;-92
2022/09/24 01:21:09;;;;;;;1.08;0.70;;;;;;;-145.06;100.00;60892.56;5911944;23;20006;-92
2022/09/24 01:24:19;;;;;;;1.30;0.70;;;;;;;-145.06;100.00;60892.56;5911786;23;20002;-91
2022/09/24 01:27:32;;;;;;;1.52;0.90;;;;;;;-145.06;100.00;60892.56;5911801;23;20006;-92
2022/09/24 01:30:14;;;;;;;1.23;0.70;;;;;;;-145.06;100.00;60892.56;5912608;23;20084;-92
2022/09/24 01:32:58;;;;;;;1.30;0.77;;;;;;;-145.06;100.00;60892.56;5912750;23;20006;-93
2022/09/24 01:35:42;;;;;;;0.82;0.57;;;;;;;-145.06;100.00;60892.56;5912447;23;20010;-92
2022/09/24 01:38:27;;;;;;;0.93;0.63;;;;;;;-145.06;100.00;60892.56;5911726;23;20010;-91
2022/09/24 01:41:14;;;;;;;1.50;0.80;;;;;;;-145.06;100.00;60892.56;5911818;23;20437;-91
2022/09/24 01:43:53;;;;;;;1.00;0.88;;;;;;;-145.06;100.00;60892.56;5912178;23;20437;-92
2022/09/24 01:46:37;;;;;;;3.80;1.08;;;;;;;-145.06;100.00;60892.56;5911387;23;20005;-91
2022/09/24 01:49:16;;;;;;;1.13;0.73;;;;;;;-145.06;100.00;60892.56;5911964;23;20006;-92
2022/09/24 01:52:00;;;;;;;1.83;0.90;;;;;;;-145.06;100.00;60892.56;5912307;23;20009;-92
2022/09/24 01:54:49;;;;;;;1.27;0.95;;;;;;;-145.06;100.00;60892.56;5911984;23;20006;-92
2022/09/24 01:57:38;;;;;;;1.17;0.87;;;;;;;-145.06;100.00;60892.56;5912215;23;20010;-91
2022/09/24 02:00:20;;;;;;;1.60;0.80;;;;;;;-145.06;100.00;60892.56;5911926;23;20010;-91
2022/09/24 02:03:14;;;;;;;2.00;0.90;;;;;;;-145.06;100.00;60892.56;5912076;23;20437;-91
2022/09/24 02:06:00;;;;;;;1.10;0.68;;;;;;;-145.06;100.00;60892.56;5911977;23;20006;-93
2022/09/24 02:08:46;;;;;;;1.50;0.82;;;;;;;-145.06;100.00;60892.56;5911511;23;20006;-91
2022/09/24 02:11:26;;;;;;;2.10;0.80;;;;;;;-145.06;100.00;60892.56;5912423;23;20006;-91
2022/09/24 02:14:13;;;;;;;0.95;0.77;;;;;;;-145.06;100.00;60892.56;5911778;23;20433;-91
2022/09/24 02:16:53;;;;;;;1.00;0.60;;;;;;;-145.06;100.00;60892.56;5911170;23;20437;-90
2022/09/24 02:19:35;;;;;;;2.33;0.73;;;;;;;-145.06;100.00;60892.56;5911469;23;20010;-90
2022/09/24 02:22:16;;;;;;;0.70;0.60;;;;;;;-145.06;100.00;60892.56;5911449;23;20006;-92
2022/09/24 02:25:03;;;;;;;1.70;0.70;;;;;;;-145.06;100.00;60892.56;5911682;23;20006;-91
2022/09/24 02:27:42;;;;;;;1.17;0.70;;;;;;;-145.06;100.00;60892.56;5911871;23;20009;-93
2022/09/24 02:30:21;;;;;;;1.23;0.80;;;;;;;-145.06;100.00;60892.56;5912099;23;20006;-92
2022/09/24 02:33:00;;;;;;;2.47;1.00;;;;;;;-145.06;100.00;60892.56;5911682;23;20297;-92
2022/09/24 02:35:40;;;;;;;1.27;0.80;;;;;;;-145.06;100.00;60892.56;5911773;23;20425;-92
2022/09/24 02:38:19;;;;;;;0.93;0.70;;;;;;;-145.06;100.00;60892.56;5911779;23;20010;-91
2022/09/24 02:40:59;;;;;;;1.23;0.70;;;;;;;-145.06;100.00;60892.56;5911919;23;20014;-93
2022/09/24 02:43:39;;;;;;;1.20;0.85;;;;;;;-145.06;100.00;60892.56;5911364;23;20315;-91
2022/09/24 02:46:19;;;;;;;0.93;0.68;;;;;;;-145.06;100.00;60892.56;5911369;23;20525;-92
2022/09/24 02:48:58;;;;;;;1.57;0.70;;;;;;;-145.06;100.00;60892.56;5911597;23;20314;-93
2022/09/24 02:51:37;;;;;;;0.97;0.87;;;;;;;-145.06;100.00;60892.56;5910894;23;20421;-92
2022/09/24 02:54:16;;;;;;;1.80;0.90;;;;;;;-145.06;100.00;60892.56;5911839;23;20437;-91
2022/09/24 02:56:56;;;;;;;0.80;0.77;;;;;;;-145.06;100.00;60892.56;5911586;23;20421;-91
2022/09/24 02:59:34;;;;;;;1.65;0.70;;;;;;;-145.06;100.00;60892.56;5911415;23;20018;-91
2022/09/24 03:02:14;;;;;;;0.90;0.80;;;;;;;-145.06;100.00;60892.56;5911312;23;20453;-90
2022/09/24 03:04:54;;;;;;;1.17;0.90;;;;;;;-145.06;100.00;60892.56;5911131;23;20365;-89
2022/09/24 03:07:32;;;;;;;2.03;0.95;;;;;;;-145.06;100.00;60892.56;5911148;23;20009;-91
2022/09/24 03:10:12;;;;;;;1.30;0.90;;;;;;;-145.06;100.00;60892.56;5911140;23;20010;-91
2022/09/24 03:12:51;;;;;;;1.20;0.70;;;;;;;-145.06;100.00;60892.56;5910716;23;20238;-92
2022/09/24 03:15:30;;;;;;;1.07;0.80;;;;;;;-145.06;100.00;60892.56;5911155;23;20037;-91
2022/09/24 03:18:09;;;;;;;1.00;0.75;;;;;;;-145.06;100.00;60892.56;5911132;23;20009;-92
2022/09/24 03:21:01;;;;;;;2.23;1.17;;;;;;;-145.06;100.00;60892.56;5910979;23;20085;-91
2022/09/24 03:23:41;;;;;;;1.27;1.00;;;;;;;-145.06;100.00;60892.56;5911041;23;20013;-92
2022/09/24 03:26:20;;;;;;;1.60;0.77;;;;;;;-145.06;100.00;60892.56;5910362;23;20025;-91
2022/09/24 03:28:59;;;;;;;1.08;0.95;;;;;;;-145.06;100.00;60892.56;5910554;23;20005;-90
2022/09/24 03:31:38;;;;;;;1.92;0.80;;;;;;;-145.06;100.00;60892.56;5910353;23;20414;-92
2022/09/24 03:34:16;;;;;;;0.98;0.70;;;;;;;-145.06;100.00;60892.56;5910563;23;20010;-92
2022/09/24 03:36:55;;;;;;;1.30;0.90;;;;;;;-145.06;100.00;60892.56;5910540;23;20014;-92
2022/09/24 03:39:34;;;;;;;0.93;0.75;;;;;;;-145.06;100.00;60892.56;5910663;23;20010;-91
2022/09/24 03:42:13;;;;;;;1.00;0.70;;;;;;;-145.06;100.00;60892.56;5910846;23;20085;-92
2022/09/24 03:44:53;;;;;;;1.23;0.70;;;;;;;-145.06;100.00;60892.56;5910438;23;20441;-91
2022/09/24 03:47:32;;;;;;;0.90;0.60;;;;;;;-145.06;100.00;60892.56;5910544;23;20010;-91
2022/09/24 03:50:10;;;;;;;1.42;0.80;;;;;;;-145.06;100.00;60892.56;5910675;23;20006;-91
2022/09/24 03:52:49;;;;;;;1.37;0.80;;;;;;;-145.06;100.00;60892.56;5910717;23;20084;-91
2022/09/24 03:55:29;;;;;;;0.87;0.57;;;;;;;-145.06;100.00;60892.56;5910406;23;20014;-92
2022/09/24 03:58:08;;;;;;;0.60;0.50;;;;;;;-145.06;100.00;60892.56;5911114;23;20237;-92
2022/09/24 04:00:47;;;;;;;1.23;0.70;;;;;;;-145.06;100.00;60892.56;5910623;23;20081;-92
2022/09/24 04:03:26;;;;;;;1.75;0.80;;;;;;;-145.06;100.00;60892.56;5910768;23;20010;-92
2022/09/24 04:06:05;;;;;;;0.80;0.70;;;;;;;-145.06;100.00;60892.56;5910700;23;20009;-91
2022/09/24 04:08:44;;;;;;;1.65;1.00;;;;;;;-145.06;100.00;60892.56;5910603;23;20181;-91
2022/09/24 04:16:23;;;;;;;0.95;0.70;;;;;;;-145.06;100.00;60892.56;5913763;23;20180;-91
2022/09/24 04:19:02;;;;;;;1.33;0.80;;;;;;;-145.06;100.00;60892.56;5911500;23;20006;-91
2022/09/24 04:21:45;;;;;;;0.88;0.65;;;;;;;-145.06;100.00;60892.56;5910785;23;20438;-93
2022/09/24 04:24:24;;;;;;;1.10;0.60;;;;;;;-145.06;100.00;60892.56;5911070;23;20001;-93
2022/09/24 04:27:03;;;;;;;0.80;0.70;;;;;;;-145.06;100.00;60892.56;5911273;23;20033;-91
2022/09/24 04:29:42;;;;;;;1.30;0.80;;;;;;;-145.06;100.00;60892.56;5911167;23;20010;-91
2022/09/24 04:32:21;;;;;;;1.97;0.70;;;;;;;-145.06;100.00;60892.56;5910773;23;20006;-91
2022/09/24 04:35:00;;;;;;;1.20;1.00;;;;;;;-145.06;100.00;60892.56;5910680;23;20081;-92
2022/09/24 04:37:39;;;;;;;0.60;0.60;;;;;;;-145.06;100.00;60892.56;5908677;23;20010;-91
2022/09/24 04:40:18;;;;;;;0.68;0.57;;;;;;;-145.06;100.00;60892.56;5910384;23;20006;-91
2022/09/24 04:42:58;;;;;;;1.27;0.70;;;;;;;-145.06;100.00;60892.56;5909596;23;20006;-92
2022/09/24 04:45:38;;;;;;;0.88;0.52;;;;;;;-145.06;100.00;60892.56;5910310;23;20014;-91
2022/09/24 04:48:17;;;;;;;0.68;0.60;;;;;;;-145.06;100.00;60892.56;5911699;23;20014;-92
2022/09/24 04:51:01;;;;;;;0.95;0.60;;;;;;;-145.06;100.00;60892.56;5910896;23;20049;-93
2022/09/24 04:53:40;;;;;;;0.88;0.63;;;;;;;-145.06;100.00;60892.56;5913032;23;20006;-91
2022/09/24 04:56:19;;;;;;;1.07;0.63;;;;;;;-145.06;100.00;60892.56;5913296;23;20317;-92
2022/09/24 04:58:58;;;;;;;1.27;0.85;;;;;;;-145.06;100.00;60892.56;5913048;23;20373;-91
2022/09/24 05:01:37;;;;;;;0.82;0.52;;;;;;;-145.06;100.00;60892.56;5912762;23;20014;-92
2022/09/24 05:04:16;;;;;;;1.27;0.80;;;;;;;-145.06;100.00;60892.56;5912909;23;20010;-91
2022/09/24 05:06:56;;;;;;;0.68;0.52;;;;;;;-145.06;100.00;60892.56;5912920;23;20010;-93
2022/09/24 05:09:35;;;;;;;0.63;0.60;;;;;;;-145.06;100.00;60892.56;5913314;23;20010;-91
2022/09/24 05:12:15;;;;;;;0.98;0.77;;;;;;;-145.06;100.00;60892.56;5912441;23;20006;-92
2022/09/24 05:14:54;;;;;;;1.00;0.60;;;;;;;-145.06;100.00;60892.56;5914402;23;20029;-93
2022/09/24 05:17:37;;;;;;;0.73;0.47;;;;;;;-145.06;100.00;60892.56;5913007;23;20010;-91
2022/09/24 05:20:16;;;;;;;1.13;0.68;;;;;;;-145.06;100.00;60892.56;5912550;23;20238;-90
2022/09/24 05:22:55;;;;;;;1.23;0.83;;;;;;;-145.06;100.00;60892.56;5913108;23;20006;-91
2022/09/24 05:27:07;;;;;;;0.97;0.80;;;;;;;-145.06;100.00;60892.56;5912586;23;20052;-92
2022/09/24 05:28:34;;;;;;;1.10;0.73;;;;;;;-145.06;100.00;60892.56;5913633;23;20006;-91
2022/09/24 05:31:13;;;;;;;0.88;0.70;;;;;;;-145.06;100.00;60892.56;5913415;23;20417;-91
2022/09/24 05:33:52;;;;;;;1.05;0.80;;;;;;;-145.06;100.00;60892.56;5912493;23;20006;-92
2022/09/24 05:36:31;;;;;;;1.10;0.73;;;;;;;-145.06;100.00;60892.56;5913424;23;20084;-92
2022/09/24 05:39:12;;;;;;;1.33;0.80;;;;;;;-145.06;100.00;60892.56;5912646;23;20237;-92
2022/09/24 05:41:51;;;;;;;1.40;0.90;;;;;;;-145.06;100.00;60892.56;5912317;23;20010;-92
2022/09/24 05:44:30;;;;;;;1.00;0.70;;;;;;;-145.06;100.00;60892.56;5912626;23;20024;-92
2022/09/24 05:47:09;;;;;;;1.73;0.88;;;;;;;-145.06;100.00;60892.56;5912888;23;20561;-92
2022/09/24 05:49:49;;;;;;;1.40;0.90;;;;;;;-145.06;100.00;60892.56;5913214;23;20077;-92
2022/09/24 05:52:30;;;;;;;0.90;0.80;;;;;;;-145.06;100.00;60892.56;5914034;23;20010;-93
2022/09/24 05:55:10;;;;;;;0.75;0.68;;;;;;;-145.06;100.00;60892.56;5913718;23;20006;-92
2022/09/24 05:57:49;;;;;;;1.73;0.98;;;;;;;-145.06;100.00;60892.56;5913578;23;20037;-93
2022/09/24 06:00:28;;;;;;;1.10;0.80;;;;;;;-145.06;100.00;60892.56;5914732;23;21941;-91
2022/09/24 06:03:18;;;;;;;1.35;0.80;;;;;;;-145.06;100.00;60892.56;5914886;23;20014;-92
2022/09/24 06:06:01;;;;;;;1.02;0.75;;;;;;;-145.06;100.00;60892.56;5915514;23;20006;-92
2022/09/24 06:08:47;;;;;;;3.08;0.90;;;;;;;-145.06;100.00;60892.56;5915614;23;20014;-92
2022/09/24 06:11:43;;;;;;;1.13;0.75;;;;;;;-145.06;100.00;60892.56;5915344;23;20307;-92
2022/09/24 06:14:22;;;;;;;1.45;0.85;;;;;;;-145.06;100.00;60892.56;5914138;23;20319;-91
2022/09/24 06:17:02;;;;;;;1.10;0.80;;;;;;;-145.06;100.00;60892.56;5914949;23;20006;-92
2022/09/24 06:19:41;;;;;;;0.80;0.70;;;;;;;-145.06;100.00;60892.56;5914873;23;20350;-92
2022/09/24 06:22:37;;;;;;;1.13;0.75;;;;;;;-145.06;100.00;60892.56;5914461;23;20006;-93
2022/09/24 06:30:44;;;;;;;1.25;0.68;;;;;;;-145.06;100.00;60892.56;5917599;23;20227;-91
2022/09/24 06:33:23;;;;;;;1.58;0.75;;;;;;;-145.06;100.00;60892.56;5914378;23;20005;-93
2022/09/24 06:36:03;;;;;;;1.13;0.70;;;;;;;-145.06;100.00;60892.56;5913859;23;20092;-91
2022/09/24 06:38:44;;;;;;;0.85;0.60;;;;;;;-145.06;100.00;60892.56;5913791;23;20009;-91
2022/09/24 06:41:23;;;;;;;1.73;0.80;;;;;;;-145.06;100.00;60892.56;5914348;23;20006;-95
2022/09/24 06:44:03;;;;;;;1.42;0.80;;;;;;;-145.06;100.00;60892.56;5914801;23;20006;-91
2022/09/24 06:46:49;;;;;;;1.25;0.80;;;;;;;-145.06;100.00;60892.56;5914412;23;20010;-91
2022/09/24 06:49:29;;;;;;;0.85;0.68;;;;;;;-145.06;100.00;60892.56;5915262;23;20013;-92
2022/09/24 06:52:08;;;;;;;1.13;0.77;;;;;;;-145.06;100.00;60892.56;5915128;23;20006;-91
2022/09/24 06:54:46;;;;;;;0.80;0.70;;;;;;;-145.06;100.00;60892.56;5914407;23;20002;-91
2022/09/24 06:57:25;;;;;;;1.40;0.90;;;;;;;-145.06;100.00;60892.56;5914042;23;20009;-92
2022/09/24 07:00:05;;;;;;;1.00;0.80;;;;;;;-145.06;100.00;60892.56;5914374;23;20374;-91
2022/09/24 07:02:50;;;;;;;;;;;;;;;-145.06;100.00;60892.56;5915445;23;20448;-93
2022/09/24 07:05:29;;;;;;;0.90;0.60;;;;;;;-145.06;100.00;60892.56;5913891;23;19905;-93
2022/09/24 07:08:09;;;;;;;1.08;0.80;;;;;;;-145.06;100.00;60892.56;5913678;23;20033;-93
2022/09/24 07:10:48;;;;;;;0.90;0.80;;;;;;;-145.06;100.00;60892.56;5913787;23;20010;-92
2022/09/24 07:13:28;;;;;;;1.05;0.80;;;;;;;-145.06;100.00;60892.56;5913842;23;20009;-93
2022/09/24 07:16:07;;;;;;;1.98;0.90;;;;;;;-145.06;100.00;60892.56;5914033;23;20006;-93
2022/09/24 07:18:46;;;;;;;1.95;0.98;;;;;;;-145.06;100.00;60892.56;5913179;23;20033;-92
2022/09/24 07:21:25;;;;;;;1.00;0.87;;;;;;;-145.06;100.00;60892.56;5914203;23;20080;-92
2022/09/24 07:24:13;;;;;;;1.40;0.80;;;;;;;-145.06;100.00;60892.56;5913517;23;20464;-93
2022/09/24 07:26:55;;;;;;;4.38;0.80;;;;;;;-145.06;100.00;60892.56;5914883;23;20033;-93
2022/09/24 07:29:52;;;;;;;1.10;0.90;;;;;;;-145.06;100.00;60892.56;5914538;23;20092;-93
2022/09/24 07:33:12;;;;;;;2.60;0.75;;;;;;;-145.06;100.00;60892.56;5913336;23;20077;-93
2022/09/24 07:36:17;;;;;;;0.93;0.80;;;;;;;-145.06;100.00;60892.56;5913659;23;20006;-92
2022/09/24 07:39:37;;;;;;;;;;;;;;;;;;;;;
2022/09/24 07:42:55;;;;;;;;;;;;;;;;;;;;;
2022/09/24 07:49:41;;;;;;;3.67;2.15;;;;;;;-145.06;100.00;60892.56;5927991;23;20014;-92
2022/09/24 07:52:27;;;;;;;2.67;1.48;;;;;;;-145.06;100.00;60892.56;5920598;23;20002;-94
2022/09/24 07:55:28;;;;;;;2.15;1.20;;;;;;;-145.06;100.00;60892.56;5899356;23;20033;-90
2022/09/24 07:58:21;;;;;;;1.73;1.10;;;;;;;-145.06;100.00;60892.56;5923468;23;20005;-93
2022/09/24 08:01:08;;;;;;;1.88;1.20;;;;;;;-145.06;100.00;60892.56;5921777;23;20005;-92
2022/09/24 08:06:57;;;;;;;2.08;1.13;;;;;;;-145.06;100.00;60892.56;5924426;23;20081;-92
2022/09/24 08:10:20;;;;;;;1.38;0.90;;;;;;;-145.06;100.00;60892.56;5913593;23;20006;-93
2022/09/24 08:16:25;;;;;;;1.95;0.98;;;;;;;-145.06;100.00;60892.56;5918447;23;20005;-93
2022/09/24 08:19:52;;;;;;;2.58;1.10;;;;;;;-145.06;100.00;60892.56;5912480;23;20013;-93
2022/09/24 08:22:44;;;;;;;1.20;0.95;;;;;;;-145.06;100.00;60892.56;5914026;23;20006;-95
2022/09/24 08:37:44;;;;;;;;;;;;;;;;;;;;;
2022/09/24 09:10:28;;;;;;;1.80;1.33;;;;;;;-145.06;100.00;60892.56;5918255;23;20199;-91
2022/09/24 09:13:13;;;;;;;1.48;1.25;;;;;;;-145.06;100.00;60892.56;5909179;23;20006;-94
2022/09/24 09:16:02;;;;;;;2.15;1.40;;;;;;;-145.06;100.00;60892.56;5909519;23;20457;-92
2022/09/24 09:18:44;;;;;;;1.67;1.17;;;;;;;-145.06;100.00;60892.56;5909378;23;20014;-93
2022/09/24 09:22:37;;;;;;;1.75;1.25;;;;;;;-145.06;100.00;60892.56;5907167;23;20010;-93
2022/09/24 09:25:28;;;;;;;1.35;1.25;;;;;;;-145.06;100.00;60892.56;5912102;23;20006;-93
2022/09/24 09:32:29;;;;;;;1.95;1.63;;;;;;;-145.06;100.00;60892.56;5844170;23;20007;-91
2022/09/24 09:35:23;;;;;;;2.15;1.60;;;;;;;-145.06;100.00;60892.56;5914287;23;20010;-91
2022/09/24 09:38:24;;;;;;;2.28;1.80;;;;;;;-145.06;100.00;60892.56;5908990;23;20334;-91
2022/09/24 09:41:51;;;;;;;2.17;1.40;;;;;;;-145.06;100.00;60892.56;5922651;23;20069;-94
2022/09/24 09:44:51;;;;;;;2.10;1.45;;;;;;;-145.06;100.00;60892.56;5931484;23;20014;-92
2022/09/24 09:47:45;;;;;;;2.22;1.60;;;;;;;-145.06;100.00;60892.56;5885139;23;20427;-93
2022/09/24 09:51:07;;;;;;;1.92;1.50;;;;;;;-145.06;100.00;60892.56;5883841;23;20010;-92
2022/09/24 10:01:30;;;;;;;2.10;1.50;;;;;;;-145.06;100.00;60892.56;5922218;23;20041;-91
2022/09/24 10:12:53;;;;;;;;;;;;;;;;;;;;;
2022/09/24 10:15:33;;;;;;;2.00;1.45;;;;;;;-145.06;100.00;60892.56;5921447;23;20006;-93
2022/09/24 10:18:15;;;;;;;1.73;1.20;;;;;;;-145.06;100.00;60892.56;5909244;23;20014;-91
2022/09/24 10:21:01;;;;;;;2.30;1.23;;;;;;;-145.06;100.00;60892.56;5918157;23;20022;-92
2022/09/24 10:23:43;;;;;;;1.75;1.40;;;;;;;-145.06;100.00;60892.56;5908507;23;20014;-91
2022/09/24 10:26:43;;;;;;;1.90;1.50;;;;;;;-145.06;100.00;60892.56;5908526;23;20064;-93
2022/09/24 10:32:28;;;;;;;1.55;1.20;;;;;;;-145.06;100.00;60892.56;5919814;23;19908;-92
2022/09/24 10:35:25;;;;;;;1.55;1.15;;;;;;;-145.06;100.00;60892.56;5907860;23;20010;-91
2022/09/24 10:38:19;;;;;;;1.90;1.38;;;;;;;-145.06;100.00;60892.56;5907064;23;20010;-92
2022/09/24 10:41:00;;;;;;;2.08;1.70;;;;;;;-145.06;100.00;60892.56;5903709;23;20013;-91
2022/09/24 10:43:49;;;;;;;3.28;2.03;;;;;;;-145.06;100.00;60892.56;5903440;23;20005;-92
2022/09/24 10:47:08;;;;;;;;;;;;;;;;;;;;;
2022/09/24 10:50:15;;;;;;;1.70;1.30;;;;;;;-145.06;100.00;60892.56;5914638;23;20080;-92
2022/09/24 10:53:28;;;;;;;1.75;1.40;;;;;;;-145.06;100.00;60892.56;5904122;23;20085;-92
2022/09/24 10:57:06;;;;;;;2.65;1.40;;;;;;;-145.06;100.00;60892.56;5903702;23;20010;-91
2022/09/24 11:00:01;;;;;;;1.40;1.20;;;;;;;-145.06;100.00;60892.56;5906061;23;20006;-93
2022/09/24 11:03:15;;;;;;;2.42;1.58;;;;;;;-145.06;100.00;60892.56;5913067;23;20017;-92
2022/09/24 11:06:25;;;;;;;2.20;1.50;;;;;;;-145.06;100.00;60892.56;5919774;23;20010;-94
2022/09/24 11:09:13;;;;;;;1.95;1.45;;;;;;;-145.06;100.00;60892.56;5919400;23;19998;-92
2022/09/24 11:12:01;;;;;;;2.53;1.30;;;;;;;-145.06;100.00;60892.56;5912348;23;20005;-92
2022/09/24 11:14:52;;;;;;;3.10;1.77;;;;;;;-145.06;100.00;60892.56;5918719;23;20010;-92
2022/09/24 11:17:36;;;;;;;2.72;1.83;;;;;;;-145.06;100.00;60892.56;5918426;23;20002;-93
2022/09/24 11:21:09;;;;;;;2.75;1.77;;;;;;;-145.06;100.00;60892.56;5913070;23;20010;-93
2022/09/24 11:24:31;;;;;;;2.50;1.70;;;;;;;-145.06;100.00;60892.56;5896570;23;20034;-93
2022/09/24 11:27:17;;;;;;;2.13;1.50;;;;;;;-145.06;100.00;60892.56;5920277;23;20014;-92
2022/09/24 11:30:15;;;;;;;;;;;;;;;-145.06;100.00;60892.56;5914939;23;20010;-92
2022/09/24 11:33:25;;;;;;;2.08;1.48;;;;;;;-145.06;100.00;60892.56;5921296;23;19909;-93
2022/09/24 11:36:36;;;;;;;1.73;1.30;;;;;;;-145.06;100.00;60892.56;5913546;23;20002;-93
2022/09/24 11:39:52;;;;;;;1.48;1.08;;;;;;;-145.06;100.00;60892.56;5915468;23;20433;-93
2022/09/24 11:43:10;;;;;;;1.40;1.20;;;;;;;-145.06;100.00;60892.56;5920968;23;20010;-92
2022/09/24 11:46:25;;;;;;;1.60;1.20;;;;;;;-145.06;100.00;60892.56;5920013;23;20073;-93
2022/09/24 11:50:06;;;;;;;1.33;1.15;;;;;;;-145.06;100.00;60892.56;5851372;23;20010;-93
2022/09/24 12:53:53;;;;;;;2.70;1.50;;;;;;;-145.06;100.00;60892.56;5900502;23;19936;-92
2022/09/24 12:56:37;;;;;;;1.80;1.30;;;;;;;-145.06;100.00;60892.56;5893391;23;20073;-93
2022/09/24 12:59:27;;;;;;;2.08;1.50;;;;;;;-145.06;100.00;60892.56;5885032;23;20014;-91
2022/09/24 13:02:45;;;;;;;2.67;1.60;;;;;;;-145.06;100.00;60892.56;5892371;23;20002;-92
2022/09/24 13:05:44;;;;;;;1.77;1.17;;;;;;;-145.06;100.00;60892.56;5892363;23;20026;-91
2022/09/24 13:08:25;;;;;;;1.70;1.25;;;;;;;-145.06;100.00;60892.56;5886671;23;20033;-91
2022/09/24 13:11:25;;;;;;;2.33;1.33;;;;;;;-145.06;100.00;60892.56;5892748;23;20006;-91
2022/09/24 13:14:19;;;;;;;;;;;;;;;-145.06;100.00;60892.56;5892881;23;20010;-91
2022/09/24 13:17:04;;;;;;;2.55;1.10;;;;;;;-145.06;100.00;60892.56;5886195;23;19941;-91
2022/09/24 13:19:49;;;;;;;2.00;1.23;;;;;;;-145.06;100.00;60892.56;5892427;23;20066;-91
2022/09/24 13:22:36;;;;;;;1.77;1.38;;;;;;;-145.06;100.00;60892.56;5888829;23;20006;-90
2022/09/24 13:25:21;;;;;;;1.90;1.42;;;;;;;-145.06;100.00;60892.56;5887513;23;20006;-91
2022/09/24 13:28:03;;;;;;;1.70;1.30;;;;;;;-145.06;100.00;60892.56;5886368;23;20007;-89
2022/09/24 13:30:45;;;;;;;1.58;1.27;;;;;;;-145.06;100.00;60892.56;5893043;23;20003;-90
2022/09/24 13:33:32;;;;;;;2.00;1.27;;;;;;;-145.06;100.00;60892.56;5892543;23;20011;-92
2022/09/24 13:36:17;;;;;;;2.58;1.60;;;;;;;-145.06;100.00;60892.56;5886155;23;20010;-91
2022/09/24 13:39:13;;;;;;;2.03;1.60;;;;;;;-145.06;100.00;60892.56;5892071;23;20010;-91
2022/09/24 13:42:06;;;;;;;2.05;1.50;;;;;;;-145.06;100.00;60892.56;5892946;23;20042;-95
2022/09/24 13:44:56;;;;;;;2.00;1.50;;;;;;;-145.06;100.00;60892.56;5886021;23;20002;-92
2022/09/24 13:47:35;;;;;;;1.85;1.35;;;;;;;-145.06;100.00;60892.56;5892270;23;20505;-90
2022/09/24 13:50:31;;;;;;;2.08;1.50;;;;;;;-145.06;100.00;60892.56;5892547;23;20033;-91
2022/09/24 13:53:16;;;;;;;2.70;1.90;;;;;;;-145.06;100.00;60892.56;5885533;23;20453;-91
2022/09/24 13:56:04;;;;;;;2.00;1.35;;;;;;;-145.06;100.00;60892.56;5890889;23;20010;-90
2022/09/24 13:58:43;;;;;;;2.42;1.73;;;;;;;-145.06;100.00;60892.56;5888622;23;20010;-91
2022/09/24 14:01:28;;;;;;;1.90;1.50;;;;;;;-145.06;100.00;60892.56;5885574;23;20006;-92
2022/09/24 14:04:21;;;;;;;2.33;1.85;;;;;;;-145.06;100.00;60892.56;5885521;23;20014;-91
2022/09/24 14:07:01;;;;;;;2.13;1.70;;;;;;;-145.06;100.00;60892.56;5892245;23;20033;-91
2022/09/24 14:09:43;;;;;;;3.58;1.63;;;;;;;-145.06;100.00;60892.56;5892613;23;20011;-91
2022/09/24 14:12:22;;;;;;;2.25;1.60;;;;;;;-145.06;100.00;60892.56;5885653;23;20010;-93
2022/09/24 14:15:12;;;;;;;2.80;1.98;;;;;;;-145.06;100.00;60892.56;5891881;23;20015;-90
2022/09/24 14:17:55;;;;;;;;;;;;;;;-145.06;100.00;60892.56;5892692;23;20010;-92
2022/09/24 14:20:35;;;;;;;2.83;1.40;;;;;;;-145.06;100.00;60892.56;5885490;23;19913;-92
2022/09/24 14:23:21;;;;;;;2.50;1.83;;;;;;;-145.06;100.00;60892.56;5891589;23;20070;-91
2022/09/24 14:26:04;;;;;;;2.30;1.60;;;;;;;-145.06;100.00;60892.56;5892577;23;20014;-92
2022/09/24 14:28:44;;;;;;;2.88;1.58;;;;;;;-145.06;100.00;60892.56;5887494;23;20006;-92
2022/09/24 14:31:23;;;;;;;2.88;1.92;;;;;;;-145.06;100.00;60892.56;5890246;23;20026;-90
2022/09/24 14:34:04;;;;;;;4.10;2.03;;;;;;;-145.06;100.00;60892.56;5890461;23;20014;-91
2022/09/24 14:36:46;;;;;;;2.80;1.65;;;;;;;-145.06;100.00;60892.56;5885619;23;20713;-92
2022/09/24 14:39:28;;;;;;;3.13;2.03;;;;;;;-145.06;100.00;60892.56;5888053;23;20493;-92
2022/09/24 14:42:21;;;;;;;2.80;2.00;;;;;;;-145.06;100.00;60892.56;5890828;23;20007;-92
2022/09/24 14:45:11;;;;;;;2.67;1.90;;;;;;;-145.06;100.00;60892.56;5892392;23;20006;-92
2022/09/24 14:48:01;;;;;;;2.70;1.70;;;;;;;-145.06;100.00;60892.56;5886856;23;20010;-91
2022/09/24 14:50:41;;;;;;;2.00;1.55;;;;;;;-145.06;100.00;60892.56;5889267;23;20010;-92
2022/09/24 14:53:27;;;;;;;3.15;1.67;;;;;;;-145.06;100.00;60892.56;5892912;23;20018;-91
2022/09/24 14:56:18;;;;;;;2.85;2.03;;;;;;;-145.06;100.00;60892.56;5887627;23;20081;-92
2022/09/24 14:58:58;;;;;;;2.45;1.80;;;;;;;-145.06;100.00;60892.56;5888259;23;20038;-93
2022/09/24 15:01:40;;;;;;;3.28;1.80;;;;;;;-145.06;100.00;60892.56;5891998;23;20007;-92
2022/09/24 15:04:30;;;;;;;2.83;2.00;;;;;;;-145.06;100.00;60892.56;5889364;23;20010;-92
2022/09/24 15:07:28;;;;;;;;;;;;;;;-145.06;100.00;60892.56;5888710;23;20201;-92
2022/09/24 15:10:20;;;;;;;1.75;1.30;;;;;;;-145.06;100.00;60892.56;5890236;23;19909;-91
2022/09/24 15:12:59;;;;;;;2.78;1.60;;;;;;;-145.06;100.00;60892.56;5885008;23;20014;-92
2022/09/24 15:15:38;;;;;;;2.90;1.60;;;;;;;-145.06;100.00;60892.56;5885759;23;20042;-92
2022/09/24 15:18:18;;;;;;;3.22;2.03;;;;;;;-145.06;100.00;60892.56;5891265;23;20342;-91